createdAt,value
2022-12-27T00:02:22.133Z,99588.38
2022-12-27T00:04:50.298Z,99596.59
2022-12-27T00:07:17.972Z,99587.00
2022-12-27T00:09:45.329Z,99599.81
2022-12-27T00:12:12.896Z,99612.00
2022-12-27T00:14:40.320Z,99609.81
2022-12-27T00:17:08.074Z,99613.81
2022-12-27T00:19:35.433Z,99611.53
2022-12-27T00:22:03.048Z,99619.34
2022-12-27T00:24:30.322Z,99613.28
2022-12-27T00:26:57.955Z,99627.81
2022-12-27T00:29:25.243Z,99639.94
2022-12-27T00:31:52.808Z,99642.44
2022-12-27T00:34:20.391Z,99649.28
2022-12-27T00:36:48.200Z,99662.97
2022-12-27T00:39:15.619Z,99656.81
2022-12-27T00:41:43.330Z,99665.63
2022-12-27T00:44:10.749Z,99692.47
2022-12-27T00:46:38.337Z,99691.53
2022-12-27T00:49:05.597Z,99703.19
2022-12-27T00:51:33.458Z,99710.25
2022-12-27T00:54:00.817Z,99700.75
2022-12-27T00:56:30.404Z,99706.16
2022-12-27T00:59:00.263Z,99725.34
2022-12-27T01:01:30.210Z,99701.06
2022-12-27T01:03:58.699Z,99702.06
2022-12-27T01:06:29.256Z,99710.31
2022-12-27T01:08:57.088Z,99704.34
2022-12-27T01:11:26.896Z,99699.06
2022-12-27T01:13:56.782Z,99701.94
2022-12-27T01:16:26.176Z,99688.38
2022-12-27T01:18:54.561Z,99710.28
2022-12-27T01:21:25.067Z,99706.00
2022-12-27T01:23:53.078Z,99705.44
2022-12-27T01:26:22.381Z,99699.16
2022-12-27T01:28:50.458Z,99711.75
2022-12-27T01:31:25.334Z,99704.81
2022-12-27T01:33:58.810Z,99721.38
2022-12-27T01:36:29.175Z,99744.09
2022-12-27T01:38:58.946Z,99739.50
2022-12-27T01:41:51.841Z,99735.88
2022-12-27T01:44:38.237Z,99750.34
2022-12-27T01:47:20.765Z,99757.53
2022-12-27T01:50:00.276Z,99742.63
2022-12-27T01:52:41.799Z,99737.63
2022-12-27T01:55:20.490Z,99747.97
2022-12-27T01:57:50.788Z,99756.66
2022-12-27T02:00:19.139Z,99753.16
2022-12-27T02:02:46.957Z,99755.22
2022-12-27T02:05:17.479Z,99744.13
2022-12-27T02:07:59.814Z,99756.22
2022-12-27T02:10:28.122Z,99760.41
2022-12-27T02:12:56.623Z,99762.03
2022-12-27T02:15:23.931Z,99757.78
2022-12-27T02:17:51.583Z,99759.97
2022-12-27T02:20:24.534Z,99757.78
2022-12-27T02:23:45.890Z,99766.81
2022-12-27T02:26:15.794Z,99762.34
2022-12-27T02:29:12.408Z,99762.84
2022-12-27T02:31:47.878Z,99766.13
2022-12-27T02:34:36.081Z,99747.63
2022-12-27T02:37:07.416Z,99750.75
2022-12-27T02:39:39.137Z,99760.69
2022-12-27T02:42:26.546Z,99761.91
2022-12-27T02:45:12.557Z,99763.03
2022-12-27T02:47:58.290Z,99768.50
2022-12-27T02:50:53.420Z,99774.09
2022-12-27T02:53:40.174Z,99768.88
2022-12-27T02:56:43.513Z,99770.19
2022-12-27T03:00:19.037Z,99769.19
2022-12-27T03:03:21.824Z,99777.81
2022-12-27T03:06:36.394Z,99785.75
2022-12-27T03:09:36.389Z,99775.41
2022-12-27T03:12:28.140Z,99795.44
2022-12-27T03:15:21.229Z,99799.97
2022-12-27T03:17:56.744Z,99789.06
2022-12-27T03:21:00.013Z,99793.56
2022-12-27T03:23:47.471Z,99810.75
2022-12-27T03:26:16.859Z,99800.13
2022-12-27T03:29:05.636Z,99811.91
2022-12-27T03:31:56.376Z,99809.38
2022-12-27T03:34:38.444Z,99814.72
2022-12-27T03:37:33.050Z,99818.78
2022-12-27T03:40:34.805Z,99819.38
2022-12-27T03:43:12.763Z,99816.44
2022-12-27T03:46:16.131Z,99825.16
2022-12-27T03:49:04.394Z,99816.25
2022-12-27T03:51:40.646Z,99823.34
2022-12-27T03:54:18.993Z,99807.06
2022-12-27T03:56:46.284Z,99823.53
2022-12-27T03:59:13.905Z,99818.00
2022-12-27T04:01:42.644Z,99820.13
2022-12-27T04:04:10.301Z,99815.94
2022-12-27T04:06:37.643Z,99816.97
2022-12-27T04:09:23.960Z,99821.84
2022-12-27T04:12:09.741Z,99823.53
2022-12-27T04:14:55.856Z,99809.00
2022-12-27T04:17:41.970Z,99816.91
2022-12-27T04:20:28.395Z,99834.41
2022-12-27T04:23:14.576Z,99838.59
2022-12-27T04:26:00.813Z,99846.06
2022-12-27T04:28:46.564Z,99851.00
2022-12-27T04:31:33.413Z,99859.53
2022-12-27T04:34:19.542Z,99855.28
2022-12-27T04:36:47.396Z,99856.22
2022-12-27T04:39:14.699Z,99851.69
2022-12-27T04:42:00.697Z,99865.47
2022-12-27T04:44:46.886Z,99854.00
2022-12-27T04:47:35.985Z,99864.06
2022-12-27T04:50:22.894Z,99872.25
2022-12-27T04:53:08.896Z,99867.03
2022-12-27T04:55:36.355Z,99870.09
2022-12-27T04:58:03.909Z,99872.84
2022-12-27T05:00:50.561Z,99873.13
2022-12-27T05:03:23.719Z,99888.03
2022-12-27T05:05:52.092Z,99866.63
2022-12-27T05:08:39.412Z,99870.56
2022-12-27T05:11:40.592Z,99896.88
2022-12-27T05:14:11.620Z,99878.13
2022-12-27T05:16:41.057Z,99886.78
2022-12-27T05:19:10.964Z,99886.66
2022-12-27T05:21:40.501Z,99893.03
2022-12-27T05:24:26.635Z,99894.31
2022-12-27T05:26:56.512Z,99909.72
2022-12-27T05:29:24.060Z,99904.97
2022-12-27T05:31:51.331Z,99906.53
2022-12-27T05:34:18.914Z,99915.16
2022-12-27T05:36:46.186Z,99891.25
2022-12-27T05:39:13.730Z,99912.00
2022-12-27T05:41:41.021Z,99921.03
2022-12-27T05:44:08.750Z,99922.75
2022-12-27T05:46:36.135Z,99920.75
2022-12-27T05:49:04.305Z,99913.25
2022-12-27T05:51:31.647Z,99909.88
2022-12-27T05:53:59.233Z,99925.16
2022-12-27T05:56:26.566Z,99914.13
2022-12-27T05:58:54.433Z,99923.25
2022-12-27T06:01:21.971Z,99912.66
2022-12-27T06:03:49.570Z,99917.34
2022-12-27T06:06:17.030Z,99918.19
2022-12-27T06:08:44.696Z,99921.81
2022-12-27T06:11:14.434Z,99922.53
2022-12-27T06:13:43.851Z,99929.06
2022-12-27T06:16:13.103Z,99928.63
2022-12-27T06:18:42.560Z,99938.41
2022-12-27T06:21:15.478Z,99942.88
2022-12-27T06:23:47.184Z,99932.00
2022-12-27T06:26:20.496Z,99937.34
2022-12-27T06:28:49.723Z,99938.41
2022-12-27T06:31:20.170Z,99949.03
2022-12-27T06:33:49.509Z,99943.81
2022-12-27T06:36:20.453Z,99946.78
2022-12-27T06:38:48.534Z,99948.28
2022-12-27T06:41:18.075Z,99946.56
2022-12-27T06:43:46.784Z,99957.97
2022-12-27T06:46:18.654Z,99972.63
2022-12-27T06:48:47.281Z,99962.19
2022-12-27T06:51:16.720Z,99962.94
2022-12-27T06:53:46.901Z,99980.50
2022-12-27T06:56:20.666Z,99987.06
2022-12-27T06:58:50.378Z,99979.00
2022-12-27T07:01:23.590Z,99990.72
2022-12-27T07:03:56.757Z,99971.88
2022-12-27T07:06:25.747Z,99987.72
2022-12-27T07:08:54.547Z,100003.03
2022-12-27T07:11:22.658Z,100010.69
2022-12-27T07:13:53.449Z,100001.09
2022-12-27T07:16:23.552Z,100002.41
2022-12-27T07:18:52.381Z,100016.22
2022-12-27T07:21:22.275Z,100007.50
2022-12-27T07:23:51.382Z,100011.66
2022-12-27T07:26:24.553Z,100012.28
2022-12-27T07:28:54.385Z,100021.19
2022-12-27T07:31:26.553Z,100013.31
2022-12-27T07:33:54.246Z,100009.06
2022-12-27T07:36:24.405Z,100016.22
2022-12-27T07:38:52.570Z,100024.09
2022-12-27T07:41:20.089Z,100027.78
2022-12-27T07:43:48.129Z,100038.34
2022-12-27T07:46:18.293Z,100041.53
2022-12-27T07:48:47.453Z,100033.03
2022-12-27T07:51:16.367Z,100032.38
2022-12-27T07:53:44.622Z,100044.94
2022-12-27T07:56:23.410Z,100036.44
2022-12-27T07:58:54.650Z,100041.06
2022-12-27T08:01:23.587Z,100042.69
2022-12-27T08:03:51.422Z,100036.72
2022-12-27T08:06:30.238Z,100042.06
2022-12-27T08:08:59.124Z,100048.13
2022-12-27T08:11:30.254Z,100043.56
2022-12-27T08:13:57.848Z,100047.28
2022-12-27T08:16:26.992Z,100048.75
2022-12-27T08:18:54.821Z,100052.34
2022-12-27T08:21:23.122Z,100038.13
2022-12-27T08:23:50.717Z,100049.06
2022-12-27T08:26:18.236Z,100043.84
2022-12-27T08:28:45.951Z,100039.72
2022-12-27T08:31:13.878Z,100043.63
2022-12-27T08:33:42.147Z,100037.88
2022-12-27T08:39:00.188Z,100039.09
2022-12-27T08:41:27.485Z,100044.59
2022-12-27T08:43:55.132Z,100037.50
2022-12-27T08:46:22.466Z,100041.19
2022-12-27T08:48:51.674Z,100040.66
2022-12-27T08:51:30.231Z,100042.19
2022-12-27T08:53:59.263Z,100050.25
2022-12-27T08:56:26.546Z,100055.88
2022-12-27T08:58:54.179Z,100060.44
2022-12-27T09:01:21.644Z,100064.09
2022-12-27T09:03:49.359Z,100065.88
2022-12-27T09:06:22.352Z,100050.13
2022-12-27T09:08:51.113Z,100047.28
2022-12-27T09:11:22.093Z,100052.88
2022-12-27T09:13:50.205Z,100046.41
2022-12-27T09:16:23.756Z,100047.91
2022-12-27T09:18:53.754Z,100048.78
2022-12-27T09:21:22.816Z,100065.56
2022-12-27T09:23:51.334Z,100053.44
2022-12-27T09:26:23.995Z,100068.75
2022-12-27T09:28:52.055Z,100063.22
2022-12-27T09:31:21.057Z,100065.47
2022-12-27T09:33:49.112Z,100057.69
2022-12-27T09:36:19.586Z,100061.31
2022-12-27T09:38:48.035Z,100047.06
2022-12-27T09:44:54.858Z,100048.66
2022-12-27T09:47:54.912Z,100049.59
2022-12-27T09:50:30.559Z,100037.06
2022-12-27T09:53:10.837Z,100042.38
2022-12-27T09:55:46.800Z,100054.06
2022-12-27T09:58:35.329Z,100056.75
2022-12-27T10:01:12.436Z,100056.00
2022-12-27T10:03:39.833Z,100055.25
2022-12-27T10:06:38.442Z,100049.00
2022-12-27T10:09:23.788Z,100057.41
2022-12-27T10:12:03.829Z,100045.06
2022-12-27T10:15:10.110Z,100052.81
2022-12-27T10:18:00.430Z,100062.81
2022-12-27T10:21:02.955Z,100058.97
2022-12-27T10:23:34.061Z,100061.00
2022-12-27T10:26:06.083Z,100058.09
2022-12-27T10:28:40.143Z,100060.47
2022-12-27T10:31:14.464Z,100047.78
2022-12-27T10:33:42.827Z,100059.75
2022-12-27T10:36:14.621Z,100063.38
2022-12-27T10:38:42.277Z,100061.06
2022-12-27T10:41:28.347Z,100052.72
2022-12-27T10:43:56.242Z,100069.78
2022-12-27T10:46:33.437Z,100055.63
2022-12-27T10:49:21.800Z,100065.94
2022-12-27T10:51:52.084Z,100062.38
2022-12-27T10:54:25.648Z,100067.69
2022-12-27T10:56:53.618Z,100071.09
2022-12-27T10:59:29.231Z,100054.72
2022-12-27T11:02:02.890Z,100064.91
2022-12-27T11:04:31.495Z,100063.00
2022-12-27T11:07:04.706Z,100079.06
2022-12-27T11:09:58.190Z,100068.00
2022-12-27T11:12:32.300Z,100062.69
2022-12-27T11:15:02.447Z,100067.50
2022-12-27T11:17:40.775Z,100070.88
2022-12-27T11:20:12.257Z,100075.78
2022-12-27T11:22:50.459Z,100051.44
2022-12-27T11:25:18.475Z,100071.75
2022-12-27T11:27:54.903Z,100081.19
2022-12-27T11:30:37.320Z,100059.19
2022-12-27T11:33:24.340Z,100051.41
2022-12-27T11:35:55.848Z,100060.25
2022-12-27T11:38:29.716Z,100063.97
2022-12-27T11:41:06.239Z,100077.50
2022-12-27T11:43:41.254Z,100071.94
2022-12-27T11:46:22.736Z,100076.41
2022-12-27T11:48:57.236Z,100068.16
2022-12-27T11:51:46.001Z,100087.94
2022-12-27T11:54:29.982Z,100080.44
2022-12-27T11:57:31.725Z,100079.38
2022-12-27T12:00:17.727Z,100076.41
2022-12-27T12:02:54.547Z,100086.59
2022-12-27T12:05:44.153Z,100069.91
2022-12-27T12:08:34.673Z,100066.41
2022-12-27T12:11:14.305Z,100082.75
2022-12-27T12:14:12.124Z,100078.13
2022-12-27T12:17:06.011Z,100081.84
2022-12-27T12:19:33.763Z,100085.03
2022-12-27T12:22:39.090Z,100077.69
2022-12-27T12:25:09.740Z,100075.34
2022-12-27T12:27:48.159Z,100072.97
2022-12-27T12:30:56.141Z,100078.56
2022-12-27T12:33:23.586Z,100084.53
2022-12-27T12:36:13.109Z,100075.13
2022-12-27T12:39:12.911Z,100070.97
2022-12-27T12:41:56.384Z,100075.56
2022-12-27T12:44:23.625Z,100081.72
2022-12-27T12:47:00.709Z,100087.06
2022-12-27T12:49:58.709Z,100075.47
2022-12-27T12:52:49.534Z,100066.63
2022-12-27T12:55:16.820Z,100068.44
2022-12-27T12:58:17.538Z,100064.94
2022-12-27T13:01:06.277Z,100063.44
2022-12-27T13:04:15.233Z,100052.38
2022-12-27T13:07:14.382Z,100071.59
2022-12-27T13:09:57.873Z,100065.31
2022-12-27T13:12:52.793Z,100049.94
2022-12-27T13:15:37.243Z,100063.31
2022-12-27T13:18:41.718Z,100064.25
2022-12-27T13:21:33.956Z,100071.56
2022-12-27T13:24:42.838Z,100075.66
2022-12-27T13:27:16.244Z,100069.50
2022-12-27T13:30:07.432Z,100074.00
2022-12-27T13:33:02.880Z,100088.13
2022-12-27T13:35:54.655Z,100081.41
2022-12-27T13:38:33.245Z,100096.94
2022-12-27T13:41:13.346Z,100109.41
2022-12-27T13:44:10.573Z,100106.00
2022-12-27T13:46:50.525Z,100108.63
2022-12-27T13:49:48.977Z,100116.22
2022-12-27T13:52:25.979Z,100137.38
2022-12-27T13:55:13.140Z,100145.59
2022-12-27T13:58:01.931Z,100146.56
2022-12-27T14:00:36.448Z,100159.88
2022-12-27T14:03:19.079Z,100164.91
2022-12-27T14:06:07.944Z,100170.91
2022-12-27T14:09:05.808Z,100168.00
2022-12-27T14:11:45.595Z,100174.72
2022-12-27T14:14:16.899Z,100171.38
2022-12-27T14:16:44.437Z,100171.00
2022-12-27T14:19:35.849Z,100184.69
2022-12-27T14:22:26.506Z,100178.72
2022-12-27T14:25:15.599Z,100198.88
2022-12-27T14:28:18.665Z,100214.72
2022-12-27T14:31:23.359Z,100219.66
2022-12-27T14:34:16.748Z,100214.81
2022-12-27T14:37:05.851Z,100228.38
2022-12-27T14:39:51.515Z,100237.34
2022-12-27T14:42:53.035Z,100234.25
2022-12-27T14:46:05.476Z,100234.63
2022-12-27T14:48:47.945Z,100227.59
2022-12-27T14:51:59.500Z,100238.38
2022-12-27T14:54:36.801Z,100242.28
2022-12-27T14:57:27.463Z,100242.19
2022-12-27T15:00:14.578Z,100257.88
2022-12-27T15:03:16.529Z,100254.44
2022-12-27T15:05:47.366Z,100261.19
2022-12-27T15:08:37.535Z,100262.56
2022-12-27T15:11:14.788Z,100268.25
2022-12-27T15:14:07.195Z,100268.38
2022-12-27T15:16:46.001Z,100280.19
2022-12-27T15:19:23.669Z,100287.56
2022-12-27T15:21:56.576Z,100297.03
2022-12-27T15:24:49.343Z,100309.78
2022-12-27T15:27:44.147Z,100316.75
2022-12-27T15:30:49.383Z,100314.63
2022-12-27T15:33:29.264Z,100325.94
2022-12-27T15:36:03.394Z,100324.19
2022-12-27T15:38:54.786Z,100311.13
2022-12-27T15:41:34.305Z,100315.34
2022-12-27T15:44:07.828Z,100322.75
2022-12-27T15:47:01.443Z,100322.88
2022-12-27T15:50:05.833Z,100325.72
2022-12-27T15:53:00.701Z,100332.56
2022-12-27T15:55:59.504Z,100323.75
2022-12-27T15:58:27.285Z,100327.78
2022-12-27T16:01:22.152Z,100325.97
2022-12-27T16:03:54.501Z,100325.38
2022-12-27T16:06:34.030Z,100316.66
2022-12-27T16:09:35.637Z,100333.16
2022-12-27T16:12:10.654Z,100335.91
2022-12-27T16:14:40.962Z,100338.56
2022-12-27T16:17:34.848Z,100344.91
2022-12-27T16:20:20.546Z,100346.25
2022-12-27T16:22:53.203Z,100352.56
2022-12-27T16:25:32.307Z,100344.09
2022-12-27T16:28:02.258Z,100362.16
2022-12-27T16:30:38.214Z,100361.22
2022-12-27T16:33:06.183Z,100357.03
2022-12-27T16:35:34.023Z,100367.28
2022-12-27T16:38:03.897Z,100363.63
2022-12-27T16:40:38.180Z,100361.22
2022-12-27T16:43:05.409Z,100364.91
2022-12-27T16:45:39.313Z,100372.78
2022-12-27T16:48:27.478Z,100372.94
2022-12-27T16:50:57.843Z,100356.94
2022-12-27T16:53:37.332Z,100365.34
2022-12-27T16:56:22.000Z,100371.72
2022-12-27T16:58:49.489Z,100379.50
2022-12-27T17:01:26.291Z,100375.31
2022-12-27T17:03:55.076Z,100371.53
2022-12-27T17:06:38.015Z,100380.34
2022-12-27T17:09:08.423Z,100367.59
2022-12-27T17:11:59.927Z,100385.56
2022-12-27T17:14:32.184Z,100382.53
2022-12-27T17:17:07.657Z,100392.59
2022-12-27T17:19:44.723Z,100390.72
2022-12-27T17:22:15.671Z,100364.50
2022-12-27T17:24:45.990Z,100387.34
2022-12-27T17:27:41.656Z,100365.56
2022-12-27T17:30:20.824Z,100388.94
2022-12-27T17:33:03.294Z,100401.00
2022-12-27T17:35:49.472Z,100393.84
2022-12-27T17:38:35.640Z,100400.63
2022-12-27T17:41:41.802Z,100408.06
2022-12-27T17:44:40.641Z,100391.91
2022-12-27T17:47:17.126Z,100426.72
2022-12-27T17:49:45.032Z,100422.44
2022-12-27T17:52:36.537Z,100412.03
2022-12-27T17:55:46.533Z,100422.22
2022-12-27T17:58:17.055Z,100409.91
2022-12-27T18:00:57.399Z,100411.50
2022-12-27T18:03:32.793Z,100421.16
2022-12-27T18:06:00.559Z,100416.16
2022-12-27T18:08:30.406Z,100420.31
2022-12-27T18:10:59.810Z,100400.06
2022-12-27T18:13:32.105Z,100398.38
2022-12-27T18:16:17.936Z,100419.34
2022-12-27T18:18:48.391Z,100407.63
2022-12-27T18:21:27.601Z,100415.41
2022-12-27T18:23:55.765Z,100420.31
2022-12-27T18:26:38.836Z,100422.22
2022-12-27T18:29:10.416Z,100407.25
2022-12-27T18:31:49.533Z,100423.22
2022-12-27T18:34:39.986Z,100418.03
2022-12-27T18:37:13.548Z,100423.03
2022-12-27T18:39:47.166Z,100421.84
2022-12-27T18:42:17.960Z,100426.81
2022-12-27T18:45:10.342Z,100437.91
2022-12-27T18:47:47.463Z,100437.22
2022-12-27T18:50:26.707Z,100445.09
2022-12-27T18:53:36.073Z,100450.75
2022-12-27T18:56:34.449Z,100446.50
2022-12-27T18:59:23.229Z,100460.19
2022-12-27T19:01:50.821Z,100437.22
2022-12-27T19:04:22.931Z,100463.25
2022-12-27T19:07:12.720Z,100454.44
2022-12-27T19:09:53.902Z,100465.31
2022-12-27T19:12:38.304Z,100480.38
2022-12-27T19:15:16.967Z,100479.00
2022-12-27T19:17:50.736Z,100478.66
2022-12-27T19:20:29.128Z,100482.81
2022-12-27T19:22:59.498Z,100483.09
2022-12-27T19:25:33.188Z,100492.50
2022-12-27T19:28:26.818Z,100477.81
2022-12-27T19:31:18.353Z,100484.63
2022-12-27T19:33:52.053Z,100475.56
2022-12-27T19:36:26.644Z,100494.22
2022-12-27T19:38:54.192Z,100490.13
2022-12-27T19:41:21.869Z,100502.97
2022-12-27T19:43:49.474Z,100503.13
2022-12-27T19:46:19.325Z,100492.00
2022-12-27T19:49:07.662Z,100502.28
2022-12-27T19:51:37.338Z,100487.09
2022-12-27T19:54:16.065Z,100503.28
2022-12-27T19:56:43.850Z,100505.16
2022-12-27T19:59:20.602Z,100493.59
2022-12-27T20:01:49.003Z,100521.50
2022-12-27T20:04:17.862Z,100526.50
2022-12-27T20:06:48.582Z,100516.25
2022-12-27T20:09:18.686Z,100514.22
2022-12-27T20:11:48.671Z,100520.56
2022-12-27T20:14:17.813Z,100512.69
2022-12-27T20:16:46.784Z,100532.47
2022-12-27T20:19:16.591Z,100502.13
2022-12-27T20:21:44.715Z,100526.59
2022-12-27T20:24:13.165Z,100529.94
2022-12-27T20:26:42.121Z,100523.97
2022-12-27T20:29:10.322Z,100527.22
2022-12-27T20:31:44.596Z,100534.75
2022-12-27T20:34:13.248Z,100511.19
2022-12-27T20:36:42.110Z,100528.84
2022-12-27T20:39:09.875Z,100536.38
2022-12-27T20:41:38.742Z,100535.66
2022-12-27T20:44:07.023Z,100520.34
2022-12-27T20:46:34.869Z,100535.66
2022-12-27T20:49:02.445Z,100523.53
2022-12-27T20:51:33.551Z,100530.00
2022-12-27T20:54:03.055Z,100532.44
2022-12-27T20:56:31.197Z,100552.50
2022-12-27T20:58:58.585Z,100540.41
2022-12-27T21:01:27.183Z,100527.25
2022-12-27T21:03:56.982Z,100547.19
2022-12-27T21:06:28.165Z,100537.06
2022-12-27T21:08:57.515Z,100521.81
2022-12-27T21:11:28.557Z,100550.09
2022-12-27T21:13:56.277Z,100542.44
2022-12-27T21:16:26.363Z,100525.69
2022-12-27T21:18:54.958Z,100547.31
2022-12-27T21:21:27.919Z,100548.25
2022-12-27T21:23:58.112Z,100558.66
2022-12-27T21:26:35.628Z,100544.69
2022-12-27T21:29:05.149Z,100544.59
2022-12-27T21:31:33.012Z,100530.28
2022-12-27T21:34:00.660Z,100539.22
2022-12-27T21:36:32.016Z,100545.03
2022-12-27T21:38:59.330Z,100546.41
2022-12-27T21:41:30.596Z,100555.97
2022-12-27T21:43:57.981Z,100536.59
2022-12-27T21:46:28.410Z,100556.31
2022-12-27T21:49:01.102Z,100541.91
2022-12-27T21:51:30.329Z,100524.69
2022-12-27T21:53:57.770Z,100538.84
2022-12-27T21:56:25.897Z,100524.47
2022-12-27T21:58:55.637Z,100542.66
2022-12-27T22:01:25.681Z,100550.00
2022-12-27T22:03:54.731Z,100550.31
2022-12-27T22:06:26.911Z,100550.56
2022-12-27T22:08:56.528Z,100550.59
2022-12-27T22:11:25.328Z,100555.31
2022-12-27T22:13:52.782Z,100546.69
2022-12-27T22:16:25.677Z,100546.69
2022-12-27T22:18:54.421Z,100548.19
2022-12-27T22:21:30.408Z,100548.75
2022-12-27T22:23:59.872Z,100557.34
2022-12-27T22:26:30.164Z,100557.97
2022-12-27T22:28:57.944Z,100549.94
2022-12-27T22:31:30.285Z,100539.56
2022-12-27T22:33:57.792Z,100544.53
2022-12-27T22:36:26.916Z,100544.41
2022-12-27T22:38:59.584Z,100546.69
2022-12-27T22:41:32.996Z,100554.63
2022-12-27T22:44:20.550Z,100550.28
2022-12-27T22:47:24.568Z,100559.94
2022-12-27T22:49:35.734Z,100553.50
2022-12-27T22:52:03.517Z,100550.22
2022-12-27T22:55:05.515Z,100547.63
2022-12-27T22:57:18.762Z,100554.41
2022-12-27T22:59:46.167Z,100562.03
2022-12-27T23:02:14.013Z,100554.06
2022-12-27T23:04:41.683Z,100554.63
2022-12-27T23:07:09.614Z,100562.81
2022-12-27T23:09:42.912Z,100564.41
2022-12-27T23:12:11.815Z,100560.75
2022-12-27T23:14:40.158Z,100562.81
2022-12-27T23:17:08.091Z,100563.00
2022-12-27T23:19:35.762Z,100545.72
2022-12-27T23:22:03.481Z,100548.94
2022-12-27T23:24:30.923Z,100557.88
2022-12-27T23:26:58.496Z,100547.56
2022-12-27T23:29:25.900Z,100552.88
2022-12-27T23:31:55.452Z,100537.97
2022-12-27T23:34:28.084Z,100551.78
2022-12-27T23:37:01.311Z,100551.63
2022-12-27T23:39:28.644Z,100559.59
2022-12-27T23:41:56.711Z,100557.13
2022-12-27T23:44:32.998Z,100568.69
2022-12-27T23:47:02.043Z,100567.84
2022-12-27T23:49:29.824Z,100552.81
2022-12-27T23:51:57.488Z,100554.25
2022-12-27T23:54:24.797Z,100563.69
2022-12-27T23:56:52.379Z,100555.84
2022-12-27T23:59:19.865Z,100571.34
